Time;durP1;ratioP1;P1;durP2;ratioP2;P2;SDS_P1;SDS_P2;PMS_P1;PMS_P2;Temp;Humidity;BMP_temperature;BMP_pressure;BME280_temperature;BME280_humidity;BME280_pressure;Samples;Min_cycle;Max_cycle;Signal;HPM_P1;HPM_P2
2022/10/29 00:02:08;;;;;;;28.30;6.97;;;13.90;99.90;;;;;;5072606;28;20489;-74
2022/10/29 00:04:34;;;;;;;26.90;6.77;;;13.80;99.90;;;;;;5072210;28;20041;-74
2022/10/29 00:06:59;;;;;;;25.90;7.47;;;13.80;99.90;;;;;;5073027;28;20158;-74
2022/10/29 00:09:25;;;;;;;24.67;6.67;;;13.80;99.90;;;;;;5072276;28;20183;-74
2022/10/29 00:11:51;;;;;;;26.77;6.33;;;13.80;99.90;;;;;;5072597;28;20483;-74
2022/10/29 00:14:16;;;;;;;21.30;6.53;;;13.80;99.90;;;;;;5072522;28;20049;-73
2022/10/29 00:16:42;;;;;;;24.83;6.20;;;13.70;99.90;;;;;;5072276;28;20051;-74
2022/10/29 00:19:08;;;;;;;20.80;6.53;;;13.70;99.90;;;;;;5055040;28;20048;-74
2022/10/29 00:21:34;;;;;;;28.23;6.50;;;13.70;99.90;;;;;;5072274;28;20041;-73
2022/10/29 00:24:00;;;;;;;25.00;7.07;;;13.70;99.90;;;;;;5072534;28;20049;-74
2022/10/29 00:26:28;;;;;;;30.87;7.67;;;13.70;99.90;;;;;;5071989;28;20063;-74
2022/10/29 00:28:55;;;;;;;25.47;7.43;;;13.70;99.90;;;;;;5072306;28;20519;-74
2022/10/29 00:31:23;;;;;;;26.60;6.43;;;13.60;99.90;;;;;;5072538;28;20041;-74
2022/10/29 00:33:49;;;;;;;28.50;7.03;;;13.60;99.90;;;;;;5072476;28;20462;-74
2022/10/29 00:36:17;;;;;;;22.80;6.13;;;13.60;99.90;;;;;;5072408;28;20048;-74
2022/10/29 00:38:44;;;;;;;28.07;6.40;;;13.60;99.90;;;;;;5072109;28;20052;-73
2022/10/29 00:41:17;;;;;;;22.60;5.83;;;13.50;99.90;;;;;;5074941;28;20097;-73
2022/10/29 00:43:47;;;;;;;20.27;6.00;;;13.50;99.90;;;;;;5075692;28;20048;-74
2022/10/29 00:46:25;;;;;;;27.50;6.87;;;13.50;99.90;;;;;;5076118;28;20040;-74
2022/10/29 00:48:54;;;;;;;29.30;7.37;;;13.50;99.90;;;;;;5075917;28;20473;-74
2022/10/29 00:51:21;;;;;;;38.70;8.13;;;13.50;99.90;;;;;;5075804;28;20083;-74
2022/10/29 00:54:03;;;;;;;33.27;8.67;;;13.50;99.90;;;;;;5074343;28;20382;-74
2022/10/29 00:56:36;;;;;;;29.07;7.40;;;13.40;99.90;;;;;;5075594;28;20131;-74
2022/10/29 00:59:04;;;;;;;27.00;7.40;;;13.40;99.90;;;;;;5075008;28;20073;-74
2022/10/29 01:01:30;;;;;;;26.50;7.30;;;13.40;99.90;;;;;;5075479;28;20385;-74
2022/10/29 01:03:58;;;;;;;26.87;7.47;;;13.40;99.90;;;;;;5074537;28;20052;-74
2022/10/29 01:06:27;;;;;;;27.03;7.40;;;13.50;99.90;;;;;;5075248;28;20048;-74
2022/10/29 01:08:53;;;;;;;26.80;7.27;;;13.40;99.90;;;;;;5075548;28;20045;-74
2022/10/29 01:11:47;;;;;;;33.17;8.23;;;13.40;99.90;;;;;;5075501;28;20127;-74
2022/10/29 01:14:38;;;;;;;32.30;8.37;;;13.40;99.90;;;;;;5075483;28;20109;-74
2022/10/29 01:17:03;;;;;;;33.47;9.70;;;13.40;99.90;;;;;;5075659;28;20045;-74
2022/10/29 01:20:03;;;;;;;33.10;9.47;;;13.40;99.90;;;;;;5075054;28;20287;-74
2022/10/29 01:23:03;;;;;;;33.27;8.37;;;13.40;99.90;;;;;;5075076;28;20048;-74
2022/10/29 01:25:53;;;;;;;38.07;9.87;;;13.50;99.90;;;;;;5074815;28;20363;-75
2022/10/29 01:28:27;;;;;;;37.33;9.57;;;13.40;99.90;;;;;;5075375;28;20056;-74
2022/10/29 01:31:18;;;;;;;43.17;10.63;;;13.50;99.90;;;;;;5075068;28;20052;-74
2022/10/29 01:34:05;;;;;;;24.77;9.67;;;13.50;99.90;;;;;;5074794;28;20053;-74
2022/10/29 01:36:50;;;;;;;33.60;10.30;;;13.50;99.90;;;;;;5074803;28;20127;-74
2022/10/29 01:39:21;;;;;;;51.22;11.80;;;13.50;99.90;;;;;;5075275;28;20040;-74
2022/10/29 01:41:51;;;;;;;76.03;10.43;;;13.50;99.90;;;;;;5074824;28;20137;-74
2022/10/29 01:44:45;;;;;;;50.87;12.17;;;13.50;99.90;;;;;;5074769;28;20079;-74
2022/10/29 01:47:19;;;;;;;52.97;12.97;;;13.50;99.90;;;;;;5074866;28;20361;-74
2022/10/29 01:50:00;;;;;;;43.20;11.40;;;13.50;99.90;;;;;;5074602;28;20093;-74
2022/10/29 01:52:31;;;;;;;46.57;12.73;;;13.50;99.90;;;;;;5074240;28;20724;-74
2022/10/29 01:54:57;;;;;;;51.67;11.90;;;13.60;99.90;;;;;;5074094;28;20404;-74
2022/10/29 01:57:35;;;;;;;48.50;12.73;;;13.40;99.90;;;;;;5073443;28;20132;-74
2022/10/29 02:00:08;;;;;;;38.30;12.20;;;13.40;99.90;;;;;;5074487;28;20093;-74
2022/10/29 02:02:34;;;;;;;34.87;11.30;;;13.40;99.90;;;;;;5074332;28;20053;-74
2022/10/29 02:05:17;;;;;;;29.63;10.53;;;13.50;99.90;;;;;;5074374;28;20048;-74
2022/10/29 02:07:56;;;;;;;41.07;11.27;;;13.40;99.90;;;;;;5074213;28;20049;-74
2022/10/29 02:10:37;;;;;;;43.73;11.33;;;13.40;99.90;;;;;;5074455;28;20083;-74
2022/10/29 02:13:03;;;;;;;43.80;10.80;;;13.40;99.90;;;;;;5073100;28;20066;-74
2022/10/29 02:15:29;;;;;;;32.27;10.83;;;13.40;99.90;;;;;;5074385;28;20172;-74
2022/10/29 02:18:03;;;;;;;30.63;10.10;;;13.40;99.90;;;;;;5056321;28;20056;-74
2022/10/29 02:20:29;;;;;;;31.93;10.67;;;13.40;99.90;;;;;;5074210;28;20083;-74
2022/10/29 02:22:54;;;;;;;56.30;11.83;;;13.40;99.90;;;;;;5072906;28;20083;-74
2022/10/29 02:25:21;;;;;;;47.73;10.77;;;13.40;99.90;;;;;;5073755;28;20047;-73
2022/10/29 02:27:47;;;;;;;41.50;10.13;;;13.40;99.90;;;;;;5073956;28;20416;-74
2022/10/29 02:30:13;;;;;;;36.00;10.70;;;13.40;99.90;;;;;;5074012;28;20056;-74
2022/10/29 02:32:39;;;;;;;51.10;9.93;;;13.40;99.90;;;;;;5073658;28;20040;-74
2022/10/29 02:35:05;;;;;;;87.83;9.00;;;13.40;99.90;;;;;;5072880;28;20515;-74
2022/10/29 02:37:31;;;;;;;52.83;9.83;;;13.40;99.90;;;;;;5073766;28;20507;-74
2022/10/29 02:39:56;;;;;;;37.73;10.77;;;13.40;99.90;;;;;;5073469;28;20279;-74
2022/10/29 02:42:22;;;;;;;35.20;9.47;;;13.40;99.90;;;;;;5073816;28;20045;-74
2022/10/29 02:44:48;;;;;;;43.67;9.47;;;13.40;99.90;;;;;;5073320;28;20048;-74
2022/10/29 02:47:14;;;;;;;64.80;11.00;;;13.40;99.90;;;;;;5073698;28;20049;-74
2022/10/29 02:49:39;;;;;;;36.93;11.00;;;13.40;99.90;;;;;;5072077;28;20044;-74
2022/10/29 02:52:05;;;;;;;36.17;10.20;;;13.50;99.90;;;;;;5073462;28;20097;-74
2022/10/29 02:54:31;;;;;;;23.53;10.30;;;13.50;99.90;;;;;;5073791;28;20128;-74
2022/10/29 02:56:56;;;;;;;39.93;10.00;;;13.50;99.90;;;;;;5073217;28;20545;-74
2022/10/29 02:59:22;;;;;;;59.97;10.10;;;13.50;99.90;;;;;;5073530;28;20052;-74
2022/10/29 03:01:48;;;;;;;42.93;9.90;;;13.40;99.90;;;;;;5073125;28;20052;-74
2022/10/29 03:04:14;;;;;;;60.13;9.87;;;13.50;99.90;;;;;;5073284;28;20049;-73
2022/10/29 03:06:40;;;;;;;73.60;9.30;;;13.50;99.90;;;;;;5073135;28;20127;-74
2022/10/29 03:09:05;;;;;;;68.13;9.50;;;13.50;99.90;;;;;;5073427;28;20075;-74
2022/10/29 03:11:31;;;;;;;85.97;10.43;;;13.50;99.90;;;;;;5072228;28;20075;-74
2022/10/29 03:13:57;;;;;;;33.27;9.57;;;13.40;99.90;;;;;;5072992;28;20044;-73
2022/10/29 03:16:23;;;;;;;25.27;9.47;;;13.40;99.90;;;;;;5072865;28;20480;-74
2022/10/29 03:18:48;;;;;;;65.60;10.73;;;13.40;99.90;;;;;;5072885;28;20055;-74
2022/10/29 03:21:14;;;;;;;79.13;10.60;;;13.40;99.90;;;;;;5073079;28;20044;-74
2022/10/29 03:23:40;;;;;;;90.30;9.63;;;13.50;99.90;;;;;;5073003;28;20052;-74
2022/10/29 03:26:05;;;;;;;37.97;8.70;;;13.50;99.90;;;;;;5072334;28;20056;-74
2022/10/29 03:28:31;;;;;;;42.17;9.10;;;13.50;99.90;;;;;;5073148;28;20041;-74
2022/10/29 03:30:57;;;;;;;63.43;9.97;;;13.50;99.90;;;;;;5072832;28;20123;-74
2022/10/29 03:33:25;;;;;;;45.00;9.17;;;13.40;99.90;;;;;;5073003;28;20044;-74
2022/10/29 03:36:09;;;;;;;40.50;9.97;;;13.50;99.90;;;;;;5072563;28;20044;-74
2022/10/29 03:38:34;;;;;;;34.73;9.63;;;13.50;99.90;;;;;;5073133;28;20049;-74
2022/10/29 03:41:00;;;;;;;55.00;9.60;;;13.50;99.90;;;;;;5071447;28;20356;-74
2022/10/29 03:43:26;;;;;;;43.57;9.87;;;13.50;99.90;;;;;;5072530;28;20107;-74
2022/10/29 03:45:56;;;;;;;42.07;9.67;;;13.50;99.90;;;;;;5072483;28;20044;-74
2022/10/29 03:48:24;;;;;;;42.03;9.40;;;13.50;99.90;;;;;;5073097;28;20044;-74
2022/10/29 03:50:58;;;;;;;63.73;9.53;;;13.50;99.90;;;;;;5072178;28;20561;-74
2022/10/29 03:53:24;;;;;;;74.10;9.93;;;13.50;99.90;;;;;;5072821;28;20278;-74
2022/10/29 03:55:52;;;;;;;46.93;9.63;;;13.50;99.90;;;;;;5072513;28;20323;-74
2022/10/29 03:58:18;;;;;;;73.80;11.17;;;13.50;99.90;;;;;;5072790;28;20278;-75
2022/10/29 04:00:43;;;;;;;70.93;10.50;;;13.50;99.90;;;;;;5072635;28;20060;-74
2022/10/29 04:03:09;;;;;;;113.40;11.87;;;13.50;99.90;;;;;;5072377;28;20044;-74
2022/10/29 04:05:35;;;;;;;21.40;10.20;;;13.50;99.90;;;;;;5072518;28;20496;-74
2022/10/29 04:08:00;;;;;;;76.63;9.60;;;13.50;99.90;;;;;;5072665;28;20067;-74
2022/10/29 04:10:26;;;;;;;46.80;10.87;;;13.50;99.90;;;;;;5072786;28;20044;-74
2022/10/29 04:12:52;;;;;;;30.67;9.97;;;13.40;99.90;;;;;;5072280;28;20116;-74
2022/10/29 04:15:18;;;;;;;66.80;11.37;;;13.50;99.90;;;;;;5074050;28;20071;-74
2022/10/29 04:17:43;;;;;;;36.73;11.70;;;13.50;99.90;;;;;;5076490;28;20488;-74
2022/10/29 04:20:09;;;;;;;24.47;10.70;;;13.50;99.90;;;;;;5075185;28;20051;-74
2022/10/29 04:22:35;;;;;;;26.83;11.57;;;13.50;99.90;;;;;;5076435;28;20049;-74
2022/10/29 04:25:01;;;;;;;30.50;11.40;;;13.50;99.90;;;;;;5075978;28;20299;-74
2022/10/29 04:27:27;;;;;;;85.77;14.20;;;13.50;99.90;;;;;;5058305;28;20048;-74
2022/10/29 04:29:53;;;;;;;34.70;11.90;;;13.50;99.90;;;;;;5074794;28;20055;-74
2022/10/29 04:32:18;;;;;;;43.37;12.30;;;13.50;99.90;;;;;;5076167;28;20279;-74
2022/10/29 04:34:44;;;;;;;46.17;12.70;;;13.40;99.90;;;;;;5074928;28;20041;-74
2022/10/29 04:37:10;;;;;;;44.77;12.50;;;13.50;99.90;;;;;;5075754;28;20041;-74
2022/10/29 04:39:35;;;;;;;38.43;11.93;;;13.50;99.90;;;;;;5076454;28;20093;-74
2022/10/29 04:42:01;;;;;;;51.97;12.63;;;13.50;99.90;;;;;;5058002;28;20048;-74
2022/10/29 04:44:27;;;;;;;54.17;11.60;;;13.50;99.90;;;;;;5075108;28;20074;-74
2022/10/29 04:46:52;;;;;;;109.73;15.10;;;13.50;99.90;;;;;;5075706;28;20545;-74
2022/10/29 04:49:18;;;;;;;72.87;14.33;;;13.50;99.90;;;;;;5075943;28;20059;-74
2022/10/29 04:51:44;;;;;;;34.80;11.83;;;13.50;99.90;;;;;;5075914;28;20059;-74
2022/10/29 04:54:10;;;;;;;33.23;12.17;;;13.50;99.90;;;;;;5075609;28;20130;-74
2022/10/29 04:56:35;;;;;;;49.10;12.10;;;13.50;99.90;;;;;;5075808;28;20087;-74
2022/10/29 04:59:01;;;;;;;80.83;13.33;;;13.50;99.90;;;;;;5075427;28;20102;-74
2022/10/29 05:01:26;;;;;;;55.07;11.93;;;13.50;99.90;;;;;;5074990;28;20126;-74
2022/10/29 05:03:52;;;;;;;75.87;13.33;;;13.60;99.90;;;;;;5075280;28;20071;-75
2022/10/29 05:06:18;;;;;;;51.63;12.47;;;13.50;99.90;;;;;;5075624;28;20052;-74
2022/10/29 05:08:43;;;;;;;71.40;14.20;;;13.50;99.90;;;;;;5075512;28;20086;-74
2022/10/29 05:11:09;;;;;;;42.57;11.63;;;13.50;99.90;;;;;;5074050;28;20047;-74
2022/10/29 05:13:35;;;;;;;44.87;11.70;;;13.50;99.90;;;;;;5075506;28;20080;-74
2022/10/29 05:16:01;;;;;;;104.47;13.07;;;13.50;99.90;;;;;;5075206;28;20037;-74
2022/10/29 05:18:26;;;;;;;46.07;12.50;;;13.40;99.90;;;;;;5075398;28;20485;-74
2022/10/29 05:20:56;;;;;;;68.03;12.43;;;13.40;99.90;;;;;;5075362;28;20044;-74
2022/10/29 05:23:22;;;;;;;79.97;13.03;;;13.40;99.90;;;;;;5075467;28;20048;-74
2022/10/29 05:25:50;;;;;;;53.80;12.27;;;13.40;99.90;;;;;;5074840;28;20099;-74
2022/10/29 05:28:18;;;;;;;51.10;12.17;;;13.40;99.90;;;;;;5074179;28;20067;-74
2022/10/29 05:30:44;;;;;;;26.77;10.67;;;13.40;99.90;;;;;;5075510;28;20094;-74
2022/10/29 05:33:13;;;;;;;33.57;11.47;;;13.40;99.90;;;;;;5074932;28;20383;-74
2022/10/29 05:35:38;;;;;;;51.03;10.90;;;13.40;99.90;;;;;;5075059;28;20279;-74
2022/10/29 05:38:04;;;;;;;44.00;9.40;;;13.40;99.90;;;;;;5074682;28;20270;-74
2022/10/29 05:40:30;;;;;;;64.60;12.47;;;13.40;99.90;;;;;;5075247;28;20083;-74
2022/10/29 05:42:56;;;;;;;38.10;11.80;;;13.40;99.90;;;;;;5075119;28;20052;-74
2022/10/29 05:45:21;;;;;;;48.77;10.50;;;13.40;99.90;;;;;;5074668;28;20044;-74
2022/10/29 05:47:47;;;;;;;60.93;11.23;;;13.40;99.90;;;;;;5075045;28;20040;-74
2022/10/29 05:50:13;;;;;;;24.97;10.07;;;13.40;99.90;;;;;;5074356;28;20045;-74
2022/10/29 05:52:39;;;;;;;50.43;10.47;;;13.40;99.90;;;;;;5074808;28;20173;-74
2022/10/29 05:55:06;;;;;;;28.33;9.10;;;13.40;99.90;;;;;;5074226;28;20277;-74
2022/10/29 05:57:31;;;;;;;56.43;11.00;;;13.40;99.90;;;;;;5073567;28;20052;-74
2022/10/29 05:59:57;;;;;;;38.40;10.40;;;13.40;99.90;;;;;;5074648;28;20051;-74
2022/10/29 06:02:23;;;;;;;30.10;8.80;;;13.40;99.90;;;;;;5074158;28;20090;-74
2022/10/29 06:04:48;;;;;;;31.83;8.53;;;13.40;99.90;;;;;;5074373;28;20040;-74
2022/10/29 06:07:14;;;;;;;33.27;9.73;;;13.40;99.90;;;;;;5074119;28;20049;-74
2022/10/29 06:09:40;;;;;;;36.40;8.80;;;13.40;99.90;;;;;;5074436;28;20051;-74
2022/10/29 06:12:06;;;;;;;25.47;8.47;;;13.40;99.90;;;;;;5074241;28;20080;-74
2022/10/29 06:14:32;;;;;;;55.93;8.73;;;13.40;99.90;;;;;;5074642;28;20048;-74
2022/10/29 06:16:57;;;;;;;36.20;9.17;;;13.40;99.90;;;;;;5074356;28;20281;-74
2022/10/29 06:19:23;;;;;;;60.27;8.83;;;13.40;99.90;;;;;;5074043;28;20075;-74
2022/10/29 06:21:49;;;;;;;60.67;9.33;;;13.40;99.90;;;;;;5074335;28;20074;-74
2022/10/29 06:24:14;;;;;;;47.13;8.07;;;13.30;99.90;;;;;;5073924;28;20045;-74
2022/10/29 06:26:40;;;;;;;55.37;9.40;;;13.30;99.90;;;;;;5073761;28;20045;-74
2022/10/29 06:29:06;;;;;;;29.60;8.60;;;13.40;99.90;;;;;;5072856;28;20123;-74
2022/10/29 06:31:32;;;;;;;36.90;8.70;;;13.40;99.90;;;;;;5074418;28;20063;-74
2022/10/29 06:33:57;;;;;;;56.10;8.93;;;13.40;99.90;;;;;;5074016;28;20044;-74
2022/10/29 06:36:23;;;;;;;57.63;9.40;;;13.50;99.90;;;;;;5073704;28;20047;-74
2022/10/29 06:38:49;;;;;;;37.97;9.17;;;13.50;99.90;;;;;;5073708;28;20051;-74
2022/10/29 06:41:14;;;;;;;39.17;9.00;;;13.50;99.90;;;;;;5073566;28;20137;-74
2022/10/29 06:43:40;;;;;;;33.70;9.47;;;13.50;99.90;;;;;;5073124;28;20185;-74
2022/10/29 06:46:06;;;;;;;44.13;9.93;;;13.50;99.90;;;;;;5073581;28;20044;-75
2022/10/29 06:48:32;;;;;;;38.97;8.70;;;13.50;99.90;;;;;;5073420;28;20499;-75
2022/10/29 06:51:01;;;;;;;55.37;9.80;;;13.50;99.90;;;;;;5073710;28;20052;-75
2022/10/29 06:53:27;;;;;;;59.23;9.10;;;13.50;99.90;;;;;;5073364;28;20080;-75
2022/10/29 06:55:53;;;;;;;82.27;9.77;;;13.50;99.90;;;;;;5073697;28;20774;-74
2022/10/29 06:58:19;;;;;;;54.07;10.10;;;13.50;99.90;;;;;;5073247;28;20084;-75
2022/10/29 07:00:46;;;;;;;55.17;11.07;;;13.50;99.90;;;;;;5073480;28;20053;-74
2022/10/29 07:03:17;;;;;;;43.10;10.13;;;13.50;99.90;;;;;;5073097;28;20522;-74
2022/10/29 07:05:43;;;;;;;72.97;11.57;;;13.60;99.90;;;;;;5072459;28;20044;-74
2022/10/29 07:08:09;;;;;;;46.37;11.20;;;13.60;99.90;;;;;;5073150;28;20049;-74
2022/10/29 07:10:35;;;;;;;51.67;11.77;;;13.60;99.90;;;;;;5073220;28;20040;-74
2022/10/29 07:13:01;;;;;;;89.67;13.83;;;13.60;99.90;;;;;;5073254;28;20051;-74
2022/10/29 07:15:28;;;;;;;63.63;14.63;;;13.60;99.90;;;;;;5072732;28;20348;-74
2022/10/29 07:17:58;;;;;;;52.40;14.57;;;13.50;99.90;;;;;;5073198;28;20044;-74
2022/10/29 07:20:24;;;;;;;76.87;16.57;;;13.60;99.90;;;;;;5072971;28;20044;-74
2022/10/29 07:22:50;;;;;;;75.67;17.50;;;13.60;99.90;;;;;;5073147;28;20049;-74
2022/10/29 07:25:16;;;;;;;54.73;16.17;;;13.60;99.90;;;;;;5072738;28;20090;-73
2022/10/29 07:27:42;;;;;;;88.60;18.50;;;13.60;99.90;;;;;;5071938;28;20174;-74
2022/10/29 07:30:08;;;;;;;62.87;16.97;;;13.60;99.90;;;;;;5073019;28;20759;-75
2022/10/29 07:32:33;;;;;;;59.57;18.40;;;13.70;99.90;;;;;;5073096;28;20131;-74
2022/10/29 07:34:59;;;;;;;63.53;18.40;;;13.70;99.90;;;;;;5073014;28;20047;-74
2022/10/29 07:37:25;;;;;;;42.83;16.67;;;13.60;99.90;;;;;;5071780;28;20040;-74
2022/10/29 07:39:50;;;;;;;38.57;16.37;;;13.70;99.90;;;;;;5071821;28;20040;-74
2022/10/29 07:42:16;;;;;;;46.33;17.67;;;13.70;99.90;;;;;;5072711;28;20447;-74
2022/10/29 07:44:42;;;;;;;46.50;19.67;;;13.70;99.90;;;;;;5072863;28;20051;-74
2022/10/29 07:47:08;;;;;;;48.10;18.47;;;13.80;99.90;;;;;;5072943;28;20048;-75
2022/10/29 07:49:33;;;;;;;39.23;17.93;;;13.70;99.90;;;;;;5070745;28;20049;-75
2022/10/29 07:51:59;;;;;;;45.73;19.33;;;13.80;99.90;;;;;;5072870;28;20504;-74
2022/10/29 07:54:24;;;;;;;39.20;18.83;;;13.80;99.90;;;;;;5072325;28;20049;-75
2022/10/29 07:56:52;;;;;;;37.30;17.33;;;13.80;99.90;;;;;;5072813;28;20135;-74
2022/10/29 07:59:18;;;;;;;44.83;20.67;;;13.80;99.90;;;;;;5072510;28;20044;-75
2022/10/29 08:01:44;;;;;;;40.17;19.67;;;13.80;99.90;;;;;;5072542;28;20576;-74
2022/10/29 08:04:10;;;;;;;41.67;19.63;;;13.90;99.90;;;;;;5072623;28;20048;-74
2022/10/29 08:06:36;;;;;;;41.60;19.03;;;13.80;99.90;;;;;;5071207;28;20048;-74
2022/10/29 08:09:02;;;;;;;36.97;19.77;;;13.80;99.90;;;;;;5072691;28;20041;-74
2022/10/29 08:11:29;;;;;;;41.23;18.73;;;13.90;99.90;;;;;;5072392;28;20045;-74
2022/10/29 08:13:55;;;;;;;40.10;21.80;;;13.90;99.90;;;;;;5072624;28;20074;-73
2022/10/29 08:16:20;;;;;;;34.20;19.63;;;13.90;99.90;;;;;;5072425;28;20070;-74
2022/10/29 08:18:46;;;;;;;40.97;22.03;;;13.90;99.90;;;;;;5072653;28;20076;-74
2022/10/29 08:21:12;;;;;;;34.37;19.43;;;14.00;99.90;;;;;;5072633;28;20492;-74
2022/10/29 08:23:37;;;;;;;35.00;20.53;;;14.00;99.90;;;;;;5072012;28;20118;-73
2022/10/29 08:26:03;;;;;;;36.10;19.13;;;14.00;99.90;;;;;;5071020;28;20060;-73
2022/10/29 08:28:29;;;;;;;33.80;18.80;;;14.00;99.90;;;;;;5072285;28;20040;-73
2022/10/29 08:30:54;;;;;;;32.13;20.27;;;14.00;99.90;;;;;;5072318;28;20056;-73
2022/10/29 08:33:20;;;;;;;33.90;20.77;;;14.10;99.90;;;;;;5072146;28;20052;-73
2022/10/29 08:35:46;;;;;;;31.13;18.53;;;14.10;99.90;;;;;;5072394;28;20048;-73
2022/10/29 08:38:12;;;;;;;28.43;19.93;;;14.20;99.90;;;;;;5072471;28;20078;-72
2022/10/29 08:40:45;;;;;;;30.43;17.83;;;14.20;99.90;;;;;;5070837;28;20508;-71
2022/10/29 08:43:44;;;;;;;31.10;19.07;;;14.20;99.90;;;;;;5072370;28;20048;-73
2022/10/29 08:46:37;;;;;;;32.97;18.07;;;14.30;99.90;;;;;;5072263;28;20549;-73
2022/10/29 08:49:10;;;;;;;29.87;18.73;;;14.30;99.90;;;;;;5072519;28;20162;-73
2022/10/29 08:51:43;;;;;;;32.27;19.60;;;14.30;99.90;;;;;;5071669;28;20049;-73
2022/10/29 08:54:14;;;;;;;37.60;20.67;;;14.30;99.90;;;;;;5071347;28;20052;-73
2022/10/29 08:56:46;;;;;;;35.17;18.77;;;14.40;99.90;;;;;;5072088;28;20365;-72
2022/10/29 08:59:15;;;;;;;31.37;18.93;;;14.40;99.90;;;;;;5072515;28;20398;-73
2022/10/29 09:01:42;;;;;;;29.23;17.40;;;14.50;99.90;;;;;;5073991;28;20123;-73
2022/10/29 09:04:22;;;;;;;34.23;19.60;;;14.60;99.90;;;;;;5075765;28;20060;-73
2022/10/29 09:07:22;;;;;;;36.40;19.13;;;14.60;99.90;;;;;;5075758;28;20052;-72
2022/10/29 09:10:01;;;;;;;31.43;19.50;;;14.70;99.90;;;;;;5075372;28;20090;-74
2022/10/29 09:12:43;;;;;;;34.30;18.53;;;14.70;99.90;;;;;;5075444;28;20121;-74
2022/10/29 09:15:29;;;;;;;33.67;19.17;;;14.80;99.90;;;;;;5075555;28;20098;-72
2022/10/29 09:18:06;;;;;;;30.47;18.17;;;14.80;99.90;;;;;;5075310;28;20477;-72
2022/10/29 09:20:47;;;;;;;28.03;17.93;;;14.80;99.90;;;;;;5075218;28;20405;-73
2022/10/29 09:23:19;;;;;;;31.03;17.70;;;14.80;99.90;;;;;;5075573;28;20040;-72
2022/10/29 09:26:01;;;;;;;33.93;19.13;;;14.80;99.90;;;;;;5074776;28;20131;-72
2022/10/29 09:28:44;;;;;;;32.87;17.60;;;14.80;99.90;;;;;;5075109;28;20412;-72
2022/10/29 09:31:15;;;;;;;33.10;18.50;;;14.80;99.90;;;;;;5075059;28;20401;-73
2022/10/29 09:33:46;;;;;;;29.00;17.83;;;14.70;99.90;;;;;;5074818;28;20057;-71
2022/10/29 09:36:21;;;;;;;37.03;19.37;;;14.70;99.90;;;;;;5075210;28;20119;-72
2022/10/29 09:39:01;;;;;;;35.67;18.98;;;14.80;99.90;;;;;;5075070;28;20123;-72
2022/10/29 09:41:31;;;;;;;31.07;19.60;;;14.90;99.90;;;;;;5073630;28;20048;-72
2022/10/29 09:44:09;;;;;;;31.47;18.70;;;14.90;99.90;;;;;;5074482;28;20040;-71
2022/10/29 09:46:53;;;;;;;33.13;19.40;;;15.10;99.90;;;;;;5072119;28;20413;-72
2022/10/29 09:49:44;;;;;;;33.23;19.60;;;15.20;99.90;;;;;;5074903;28;20049;-71
2022/10/29 09:52:27;;;;;;;31.33;19.30;;;15.30;99.90;;;;;;5074869;28;20052;-72
2022/10/29 09:54:54;;;;;;;33.50;18.80;;;15.40;99.90;;;;;;5074759;28;20045;-71
2022/10/29 09:57:26;;;;;;;32.10;17.77;;;15.40;99.90;;;;;;5074711;28;20047;-72
2022/10/29 09:59:59;;;;;;;32.23;18.13;;;15.50;99.90;;;;;;5074035;28;20499;-72
2022/10/29 10:02:41;;;;;;;31.07;17.17;;;15.50;99.90;;;;;;5074475;28;20044;-72
2022/10/29 10:05:24;;;;;;;26.60;17.60;;;15.60;99.90;;;;;;5074228;28;20041;-72
2022/10/29 10:08:12;;;;;;;30.13;17.37;;;15.60;99.90;;;;;;5074531;28;20131;-73
2022/10/29 10:10:53;;;;;;;28.97;18.30;;;15.70;99.90;;;;;;5074237;28;20102;-73
2022/10/29 10:13:43;;;;;;;27.43;16.33;;;15.70;99.90;;;;;;5073878;28;20113;-72
2022/10/29 10:16:08;;;;;;;27.53;16.23;;;15.80;99.90;;;;;;5073712;28;20049;-72
2022/10/29 10:18:40;;;;;;;29.10;17.93;;;15.90;99.90;;;;;;5073978;28;20055;-72
2022/10/29 10:21:23;;;;;;;36.33;16.73;;;15.90;99.90;;;;;;5074281;28;20074;-71
2022/10/29 10:23:54;;;;;;;31.00;15.90;;;16.00;99.90;;;;;;5074022;28;20048;-73
2022/10/29 10:26:28;;;;;;;23.87;15.87;;;16.10;99.90;;;;;;5074155;28;20056;-72
2022/10/29 10:29:23;;;;;;;29.47;16.73;;;16.10;99.90;;;;;;5074140;28;20117;-73
2022/10/29 10:31:55;;;;;;;25.87;14.77;;;16.20;99.90;;;;;;5073898;28;20110;-72
2022/10/29 10:34:21;;;;;;;23.47;14.70;;;16.30;99.90;;;;;;5073056;28;20055;-72
2022/10/29 10:36:56;;;;;;;27.13;13.73;;;16.40;99.90;;;;;;5073741;28;20080;-73
2022/10/29 10:39:33;;;;;;;21.00;12.82;;;16.50;99.90;;;;;;5073592;28;20504;-72
2022/10/29 10:42:02;;;;;;;23.33;13.23;;;16.50;99.90;;;;;;5072924;28;20056;-73
2022/10/29 10:44:29;;;;;;;22.70;13.33;;;16.50;99.90;;;;;;5073696;28;20044;-73
2022/10/29 10:46:58;;;;;;;23.80;13.27;;;16.60;99.90;;;;;;5073669;28;20091;-73
2022/10/29 10:49:36;;;;;;;22.23;13.27;;;16.70;99.90;;;;;;5073734;28;20045;-72
2022/10/29 10:52:26;;;;;;;22.97;12.33;;;16.70;99.90;;;;;;5073996;28;20113;-72
2022/10/29 10:55:22;;;;;;;22.37;12.43;;;16.80;99.90;;;;;;5069942;28;20052;-72
2022/10/29 10:57:55;;;;;;;23.13;13.17;;;16.80;99.90;;;;;;5072444;28;20139;-72
2022/10/29 11:00:22;;;;;;;25.13;12.67;;;16.90;99.90;;;;;;5073689;28;20040;-72
2022/10/29 11:02:50;;;;;;;19.27;12.23;;;17.00;99.90;;;;;;5073151;28;20400;-72
2022/10/29 11:05:21;;;;;;;23.03;11.87;;;17.00;99.90;;;;;;5073245;28;20485;-72
2022/10/29 11:08:00;;;;;;;18.83;11.00;;;17.10;99.90;;;;;;5073102;28;20048;-75
2022/10/29 11:10:50;;;;;;;21.77;10.90;;;17.20;99.90;;;;;;5072253;28;20427;-71
2022/10/29 11:13:22;;;;;;;18.70;10.97;;;17.20;99.90;;;;;;5073218;28;20051;-71
2022/10/29 11:16:20;;;;;;;21.13;10.73;;;17.30;99.90;;;;;;5073052;28;20048;-77
2022/10/29 11:19:09;;;;;;;19.17;10.17;;;17.30;99.90;;;;;;5073067;28;20051;-77
2022/10/29 11:21:53;;;;;;;25.87;11.17;;;17.40;99.90;;;;;;5073045;28;20055;-72
2022/10/29 11:24:44;;;;;;;18.23;10.27;;;17.40;99.90;;;;;;5072063;28;20482;-73
2022/10/29 11:27:31;;;;;;;20.67;10.07;;;17.40;99.90;;;;;;5072988;28;20083;-69
2022/10/29 11:30:09;;;;;;;23.60;10.67;;;17.40;99.90;;;;;;5072891;28;20102;-73
2022/10/29 11:33:09;;;;;;;22.10;11.73;;;17.40;99.90;;;;;;5072849;28;20084;-79
2022/10/29 11:35:43;;;;;;;20.13;10.33;;;17.50;99.90;;;;;;5072994;28;20123;-77
2022/10/29 11:38:18;;;;;;;19.73;9.23;;;17.50;99.90;;;;;;5072765;28;20501;-74
2022/10/29 11:41:04;;;;;;;24.23;11.07;;;17.60;99.90;;;;;;5072672;28;20083;-75
2022/10/29 11:43:31;;;;;;;25.63;10.60;;;17.60;99.90;;;;;;5073133;28;20106;-74
2022/10/29 11:46:19;;;;;;;31.00;11.37;;;17.60;99.90;;;;;;5072255;28;20044;-73
2022/10/29 11:49:21;;;;;;;23.30;10.43;;;17.60;99.90;;;;;;5072507;28;20087;-74
2022/10/29 11:52:10;;;;;;;22.37;11.00;;;17.60;99.90;;;;;;5072704;28;20053;-75
2022/10/29 11:55:15;;;;;;;22.77;11.90;;;17.60;99.90;;;;;;5072899;28;20123;-77
2022/10/29 11:57:59;;;;;;;22.13;11.32;;;17.60;99.90;;;;;;5054672;28;20084;-78
2022/10/29 12:00:31;;;;;;;23.83;12.00;;;17.50;99.90;;;;;;5072848;28;20499;-78
2022/10/29 12:03:05;;;;;;;20.93;11.03;;;17.60;99.90;;;;;;5072554;28;20044;-79
2022/10/29 12:06:08;;;;;;;21.92;11.13;;;17.60;99.90;;;;;;5071647;28;20055;-73
2022/10/29 12:09:00;;;;;;;22.87;11.73;;;17.60;99.90;;;;;;5072671;28;20045;-74
2022/10/29 12:12:03;;;;;;;22.77;10.67;;;17.70;99.90;;;;;;5072764;28;20468;-71
2022/10/29 12:14:36;;;;;;;22.97;10.93;;;17.80;99.90;;;;;;5061066;28;20520;-73
2022/10/29 12:17:21;;;;;;;19.57;11.47;;;17.80;99.90;;;;;;5072341;28;20137;-74
2022/10/29 12:20:14;;;;;;;23.63;11.17;;;17.90;99.90;;;;;;5072433;28;20049;-75
2022/10/29 12:22:58;;;;;;;23.90;10.30;;;18.00;99.90;;;;;;5072462;28;20129;-77
2022/10/29 12:26:14;;;;;;;19.67;10.80;;;18.10;99.90;;;;;;5072699;28;20110;-73
2022/10/29 12:28:51;;;;;;;20.80;10.23;;;18.10;99.90;;;;;;5048597;28;20455;-74
2022/10/29 12:31:26;;;;;;;23.73;10.33;;;18.20;99.90;;;;;;5071494;28;20110;-74
2022/10/29 12:33:59;;;;;;;17.38;9.55;;;18.20;99.90;;;;;;5072273;28;20049;-71
2022/10/29 12:36:32;;;;;;;18.00;10.73;;;18.20;99.90;;;;;;5074055;28;20041;-71
2022/10/29 12:38:59;;;;;;;24.10;10.30;;;18.20;99.90;;;;;;5074997;28;20048;-74
2022/10/29 12:41:46;;;;;;;19.50;9.80;;;18.20;99.90;;;;;;5074983;28;20044;-74
2022/10/29 12:44:43;;;;;;;19.17;10.90;;;18.20;99.90;;;;;;5075971;28;20492;-74
2022/10/29 12:47:16;;;;;;;20.40;10.50;;;18.10;99.90;;;;;;5075904;28;20059;-75
2022/10/29 12:50:02;;;;;;;20.97;9.90;;;18.20;99.90;;;;;;5074821;28;20051;-74
2022/10/29 12:52:56;;;;;;;20.70;9.97;;;18.20;99.90;;;;;;5075980;28;20056;-74
2022/10/29 12:55:22;;;;;;;21.13;10.50;;;18.30;99.90;;;;;;5075927;28;20040;-75